x

La Perouse Bank (46206) Wave Buoy

7:00am - Thu 17th Aug 2017 All times are PDT. -7 hours from GMT.

  • Sig Wave height 6.9ft
  • Peak Period 12s
  • Wind
    7mph, 9mph gusts
  • Sea Temp 57°f
  • 空気 Temp 58°f
  • Sea Pressure 1022mb
  • La Perouse Bank
  • La Perouse Bank

More Historic Weather Station data

Upgrade to MSW Pro to gain access to the past 30 days of data for over 8000 Wavebouys and Weather Stations around the globe.

Join

Comparision Forecast

View Surf forecast
   
Thu 08/17 7:00am 7ft 12s 7 9 mph 1022mb 57f 58f
6:00am 7ft 12s 9 11 mph 1021.6mb 56f 58f
5:00am 7ft 11s 11 13 mph 1021.2mb 57f 58f
4:00am 7ft 11s 11 16 mph 1021.1mb 58f 58f
3:00am 6ft 10s 13 16 mph 1021.2mb 58f 58f
2:00am 6ft 9s 11 13 mph 1021.1mb 58f 58f
1:00am 5.5ft 11s 16 18 mph 1021.2mb 58f 58f
12:00am 5.5ft 11s 13 16 mph 1020.9mb 58f 58f
Wed 08/16 11:00pm 5ft 11s 13 18 mph 1020.8mb 58f 59f
10:00pm 5ft 9s 13 18 mph 1020.6mb 58f 59f
9:00pm 5ft 9s 13 16 mph 1020.6mb 58f 59f
8:00pm 5.5ft 10s 13 16 mph 1020.3mb 58f 59f
7:00pm 5ft 10s 13 16 mph 1020.4mb 58f 60f
6:00pm 5ft 10s 13 18 mph 1020.3mb 58f 60f
5:00pm 5ft 11s 13 18 mph 1020.5mb 58f 59f
4:00pm 5ft 9s 13 13 mph 1020.6mb 58f 59f
3:00pm 5ft 9s 13 16 mph 1020.6mb 58f 59f
2:00pm 5ft 10s 11 13 mph 1020.5mb 59f 59f
1:00pm 4.5ft 10s 7 7 mph 1020.4mb 58f 59f
12:00pm 5ft 10s 4 7 mph 1020.1mb 58f 59f
11:00am 5ft 10s 7 9 mph 1019.7mb 58f 59f
10:00am 5ft 10s 2 4 mph 1019.6mb 59f 59f
9:00am 5ft 10s 2 4 mph 1019.3mb 58f 58f
8:00am 5ft 10s 2 4 mph 1019.1mb 57f 58f
7:00am 5.5ft 10s 4 4 mph 1019.1mb 57f 58f
6:00am 5ft 11s 7 9 mph 1018.7mb 57f 58f
5:00am 6ft 10s 9 13 mph 1018.5mb 58f 58f
4:00am 6ft 9s 9 11 mph 1018.3mb 58f 58f
3:00am 6ft 10s 9 13 mph 1018.5mb 58f 58f
2:00am 6ft 10s 11 13 mph 1018.1mb 58f 59f
1:00am 6ft 10s 13 16 mph 1018.2mb 58f 59f
12:00am 6ft 10s 16 18 mph 1018mb 58f 59f
Tue 08/15 11:00pm 5ft 10s 13 16 mph 1017.8mb 58f 59f
10:00pm 4.5ft 10s 16 18 mph 1017.6mb 58f 59f
9:00pm 5ft 9s 13 16 mph 1017.4mb 58f 59f
8:00pm 4.5ft 10s 16 18 mph 1016.9mb 58f 59f
7:00pm 4ft 10s 13 18 mph 1016.8mb 57f 59f
6:00pm 4ft 10s 16 18 mph 1017mb 57f 59f
5:00pm 4ft 7s 16 18 mph 1017mb 58f 59f
4:00pm 3.5ft 10s 13 16 mph 1017.1mb 58f 59f
3:00pm 3.5ft 9s 13 18 mph 1017.1mb 58f 58f
2:00pm 3.5ft 10s 13 18 mph 1017.1mb 58f 58f
1:00pm 3.5ft 9s 11 13 mph 1017mb 58f 58f
12:00pm 3.5ft 8s 9 11 mph 1016.8mb 58f 58f
11:00am 3.5ft 9s 9 11 mph 1016.5mb 58f 58f
10:00am 3.5ft 10s 11 13 mph 1016.3mb 58f 58f
9:00am 3.5ft 9s 11 13 mph 1015.9mb 57f 58f
8:00am 3.5ft 9s 9 11 mph 1015.1mb 57f 57f
7:00am 3.5ft 10s 11 13 mph 1015mb 57f 58f
6:00am 4ft 9s 9 11 mph 1014.5mb 57f 58f
5:00am 4.5ft 9s 11 13 mph 1014.3mb 58f 58f
4:00am 4.5ft 9s 13 16 mph 1014.5mb 58f 58f
3:00am 4.5ft 10s 13 16 mph 1014.4mb 57f 57f
2:00am 5ft 10s 11 13 mph 1014.4mb 57f 58f
1:00am 5ft 9s 13 16 mph 1014.7mb 58f 58f
12:00am 4.5ft 10s 11 13 mph 1014.7mb 58f 58f
Mon 08/14 11:00pm 4.5ft 9s 11 13 mph 1014.8mb 58f 58f
10:00pm 4.5ft 9s 11 13 mph 1014.9mb 58f 58f
9:00pm 4.5ft 9s 11 13 mph 1015mb 58f 58f
8:00pm 5ft 10s 11 13 mph 1015.3mb 59f 58f
7:00pm 4.5ft 9s 9 11 mph 1015.2mb 59f 58f
6:00pm 5ft 10s 9 9 mph 1015.5mb 59f 58f
4:00pm 5.5ft 10s 4 7 mph 1016.1mb 60f 57f
3:00pm 5ft 10s 4 7 mph 1016.6mb 60f 57f
2:00pm 5.5ft 10s 4 7 mph 1016.9mb 58f 57f
1:00pm 5.5ft 10s  -  4 mph 1017.1mb 58f 57f
12:00pm 5.5ft 10s  -  2 mph 1017.2mb 57f 57f
11:00am 6ft 10s  -  4 mph 1017.3mb 56f 56f
10:00am 6.5ft 10s 2 4 mph 1017.1mb 56f 56f
9:00am 6ft 10s 2 7 mph 1017mb 56f 54f
8:00am 6ft 10s 7 9 mph 1016.6mb 56f 54f
7:00am 6.5ft 11s 7 9 mph 1016.4mb 56f 55f
6:00am 8ft 11s 7 9 mph 1016.3mb 56f 56f
5:00am 7.5ft 11s 11 13 mph 1016.4mb 57f 56f
4:00am 7ft 10s 11 16 mph 1016.5mb 58f 57f
3:00am 7.5ft 10s 13 18 mph 1016.9mb 58f 57f
2:00am 8ft 11s 16 18 mph 1017.2mb 58f 57f
1:00am 7.5ft 11s 16 20 mph 1017.4mb 57f 57f
12:00am 7ft 10s 13 18 mph 1017.5mb 57f 57f
Sun 08/13 11:00pm 7.5ft 10s 13 16 mph 1017.7mb 57f 57f
10:00pm 7ft 10s 16 18 mph 1017.8mb 57f 57f
9:00pm 7.5ft 10s 16 18 mph 1017.6mb 57f 57f
8:00pm 8ft 10s 16 20 mph 1017.2mb 58f 58f
7:00pm 7ft 10s 16 18 mph 1017.3mb 58f 58f
6:00pm 7.5ft 10s 16 18 mph 1017.4mb 58f 58f
5:00pm 8ft 10s 16 20 mph 1017.7mb 58f 58f
4:00pm 7.5ft 10s 13 18 mph 1017.8mb 58f 58f